createdAt,value
2019-03-15T00:02:02.086Z,4.65
2019-03-15T00:04:32.404Z,4.89
2019-03-15T00:07:02.503Z,4.99
2019-03-15T00:09:31.627Z,4.89
2019-03-15T00:12:00.709Z,4.99
2019-03-15T00:14:29.936Z,5.13
2019-03-15T00:16:59.153Z,5.13
2019-03-15T00:19:28.412Z,5.27
2019-03-15T00:21:57.475Z,5.29
2019-03-15T00:24:27.917Z,5.45
2019-03-15T00:26:56.999Z,5.54
2019-03-15T00:29:26.144Z,5.45
2019-03-15T00:31:55.393Z,5.54
2019-03-15T00:34:24.457Z,5.54
2019-03-15T00:36:53.694Z,5.57
2019-03-15T00:39:22.903Z,5.57
2019-03-15T00:41:52.278Z,5.62
2019-03-15T00:44:21.578Z,5.51
2019-03-15T00:46:50.793Z,5.43
2019-03-15T00:49:20.055Z,5.46
2019-03-15T00:51:49.515Z,5.46
2019-03-15T00:54:18.867Z,5.35
2019-03-15T00:56:47.986Z,5.42
2019-03-15T00:59:17.235Z,5.54
2019-03-15T01:01:49.693Z,5.48
2019-03-15T01:04:18.880Z,5.56
2019-03-15T01:06:48.045Z,5.40
2019-03-15T01:09:17.519Z,5.39
2019-03-15T01:11:46.674Z,5.41
2019-03-15T01:14:15.950Z,5.53
2019-03-15T01:16:44.944Z,5.64
2019-03-15T01:19:14.015Z,5.79
2019-03-15T01:21:43.044Z,5.91
2019-03-15T01:24:12.175Z,6.01
2019-03-15T01:26:41.173Z,5.90
2019-03-15T01:29:12.376Z,5.93
2019-03-15T01:31:41.392Z,5.94
2019-03-15T01:34:10.543Z,5.91
2019-03-15T01:36:39.686Z,6.03
2019-03-15T01:39:08.698Z,5.98
2019-03-15T01:41:37.840Z,5.93
2019-03-15T01:44:07.007Z,6.05
2019-03-15T01:46:36.108Z,6.07
2019-03-15T01:49:05.325Z,6.25
2019-03-15T01:51:34.393Z,6.28
2019-03-15T01:54:03.510Z,6.49
2019-03-15T01:56:32.553Z,6.59
2019-03-15T01:59:01.606Z,6.56
2019-03-15T02:01:30.861Z,6.44
2019-03-15T02:04:00.169Z,6.49
2019-03-15T02:06:29.312Z,6.57
2019-03-15T02:08:58.420Z,6.59
2019-03-15T02:11:27.418Z,6.62
2019-03-15T02:13:56.493Z,6.63
2019-03-15T02:16:25.596Z,6.69
2019-03-15T02:18:56.278Z,6.56
2019-03-15T02:21:27.133Z,6.54
2019-03-15T02:23:56.157Z,6.40
2019-03-15T02:26:25.224Z,6.40
2019-03-15T02:28:54.376Z,6.46
2019-03-15T02:31:23.531Z,6.45
2019-03-15T02:33:52.587Z,6.50
2019-03-15T02:36:23.426Z,6.61
2019-03-15T02:38:53.908Z,6.64
2019-03-15T02:41:23.231Z,6.64
2019-03-15T02:43:52.322Z,6.61
2019-03-15T02:46:21.373Z,6.62
2019-03-15T02:48:50.468Z,6.65
2019-03-15T02:51:19.502Z,6.92
2019-03-15T02:53:48.682Z,6.88
2019-03-15T02:56:17.828Z,6.93
2019-03-15T02:58:46.917Z,6.93
2019-03-15T03:01:15.978Z,7.03
2019-03-15T03:03:45.102Z,7.10
2019-03-15T03:06:14.119Z,7.17
2019-03-15T03:08:45.828Z,7.18
2019-03-15T03:11:14.833Z,7.16
2019-03-15T03:13:44.336Z,7.06
2019-03-15T03:16:13.522Z,7.09
2019-03-15T03:18:42.603Z,7.06
2019-03-15T03:21:11.630Z,7.21
2019-03-15T03:23:41.794Z,7.08
2019-03-15T03:26:10.932Z,7.06
2019-03-15T03:28:39.989Z,7.20
2019-03-15T03:31:09.047Z,7.15
2019-03-15T03:33:40.520Z,7.17
2019-03-15T03:36:08.971Z,7.11
2019-03-15T03:38:39.114Z,7.11
2019-03-15T03:41:08.233Z,7.24
2019-03-15T03:43:37.308Z,7.25
2019-03-15T03:46:07.550Z,7.38
2019-03-15T03:48:36.648Z,7.25
2019-03-15T03:51:05.789Z,7.25
2019-03-15T03:53:34.819Z,7.38
2019-03-15T03:56:07.598Z,7.24
2019-03-15T03:58:40.968Z,7.34
2019-03-15T04:01:10.068Z,7.30
2019-03-15T04:03:40.233Z,7.37
2019-03-15T04:06:09.356Z,7.21
2019-03-15T04:08:38.497Z,7.21
2019-03-15T04:11:07.553Z,7.35
2019-03-15T04:13:36.793Z,7.29
2019-03-15T04:16:08.172Z,7.33
2019-03-15T04:18:37.262Z,6.42
2019-03-15T04:21:06.331Z,7.48
2019-03-15T04:23:38.069Z,7.32
2019-03-15T04:26:06.339Z,7.33
2019-03-15T04:28:35.430Z,7.29
2019-03-15T04:31:04.630Z,7.41
2019-03-15T04:33:33.700Z,7.45
2019-03-15T04:36:02.797Z,6.93
2019-03-15T04:38:31.914Z,7.45
2019-03-15T04:41:00.963Z,7.54
2019-03-15T04:43:30.116Z,7.37
2019-03-15T04:45:59.200Z,7.28
2019-03-15T04:48:30.273Z,7.28
2019-03-15T04:50:59.388Z,7.25
2019-03-15T04:53:30.250Z,7.26
2019-03-15T04:55:59.333Z,7.31
2019-03-15T04:58:28.418Z,7.28
2019-03-15T05:00:57.479Z,7.18
2019-03-15T05:03:28.697Z,7.29
2019-03-15T05:06:03.447Z,7.14
2019-03-15T05:08:32.688Z,7.15
2019-03-15T05:11:03.749Z,7.04
2019-03-15T05:13:34.243Z,7.04
2019-03-15T05:16:03.369Z,7.12
2019-03-15T05:18:33.658Z,6.96
2019-03-15T05:21:02.752Z,7.17
2019-03-15T05:23:31.797Z,7.22
2019-03-15T05:26:00.919Z,7.16
2019-03-15T05:28:32.054Z,7.21
2019-03-15T05:31:01.144Z,7.15
2019-03-15T05:33:31.966Z,7.19
2019-03-15T05:36:01.079Z,7.13
2019-03-15T05:38:30.191Z,7.05
2019-03-15T05:40:59.316Z,7.02
2019-03-15T05:43:28.373Z,7.07
2019-03-15T05:45:57.447Z,7.16
2019-03-15T05:48:26.556Z,7.17
2019-03-15T05:50:55.672Z,7.14
2019-03-15T05:53:24.760Z,6.99
2019-03-15T05:55:53.748Z,7.06
2019-03-15T05:58:24.998Z,7.09
2019-03-15T06:00:56.358Z,7.17
2019-03-15T06:03:25.421Z,7.06
2019-03-15T06:05:56.671Z,7.08
2019-03-15T06:08:27.519Z,7.19
2019-03-15T06:10:56.490Z,7.32
2019-03-15T06:13:25.661Z,7.24
2019-03-15T06:15:58.122Z,7.37
2019-03-15T06:18:28.753Z,7.28
2019-03-15T06:21:01.502Z,7.31
2019-03-15T06:23:30.614Z,7.21
2019-03-15T06:25:59.690Z,7.35
2019-03-15T06:28:28.736Z,7.28
2019-03-15T06:30:57.767Z,7.35
2019-03-15T06:33:28.700Z,7.44
2019-03-15T06:35:57.647Z,7.35
2019-03-15T06:38:26.803Z,7.40
2019-03-15T06:40:55.907Z,7.37
2019-03-15T06:43:27.080Z,7.37
2019-03-15T06:45:56.132Z,7.41
2019-03-15T06:48:25.399Z,7.48
2019-03-15T06:50:54.510Z,7.38
2019-03-15T06:53:25.413Z,7.48
2019-03-15T06:55:54.493Z,7.47
2019-03-15T06:58:24.756Z,7.43
2019-03-15T07:00:57.354Z,7.37
2019-03-15T07:03:26.584Z,7.54
2019-03-15T07:05:55.674Z,7.77
2019-03-15T07:08:26.366Z,7.67
2019-03-15T07:10:58.138Z,7.61
2019-03-15T07:13:27.332Z,7.54
2019-03-15T07:15:57.472Z,7.71
2019-03-15T07:18:28.853Z,7.62
2019-03-15T07:20:59.470Z,7.53
2019-03-15T07:23:28.536Z,7.79
2019-03-15T07:25:57.558Z,7.68
2019-03-15T07:28:28.057Z,7.80
2019-03-15T07:30:57.227Z,8.02
2019-03-15T07:33:26.340Z,7.94
2019-03-15T07:35:55.655Z,8.02
2019-03-15T07:38:24.960Z,7.94
2019-03-15T07:40:53.975Z,7.96
2019-03-15T07:43:23.172Z,7.86
2019-03-15T07:45:52.261Z,7.86
2019-03-15T07:48:22.999Z,8.02
2019-03-15T07:50:52.324Z,7.96
2019-03-15T07:53:21.373Z,7.91
2019-03-15T07:55:50.456Z,8.21
2019-03-15T07:58:19.548Z,8.20
2019-03-15T08:00:48.675Z,8.04
2019-03-15T08:03:17.770Z,8.16
2019-03-15T08:05:50.625Z,8.14
2019-03-15T08:08:19.717Z,8.34
2019-03-15T08:10:48.725Z,8.32
2019-03-15T08:13:17.845Z,8.37
2019-03-15T08:15:47.095Z,8.37
2019-03-15T08:18:16.118Z,8.93
2019-03-15T08:20:48.326Z,8.93
2019-03-15T08:23:19.730Z,9.24
2019-03-15T08:25:50.416Z,8.93
2019-03-15T08:28:21.096Z,8.84
2019-03-15T08:30:50.149Z,8.73
2019-03-15T08:33:21.486Z,8.82
2019-03-15T08:35:50.569Z,8.76
2019-03-15T08:38:21.935Z,8.69
2019-03-15T08:40:51.128Z,8.76
2019-03-15T08:43:20.285Z,8.57
2019-03-15T08:45:49.445Z,8.85
2019-03-15T08:48:18.498Z,9.00
2019-03-15T08:50:47.621Z,9.03
2019-03-15T08:53:16.724Z,9.13
2019-03-15T08:55:45.850Z,8.87
2019-03-15T08:58:21.655Z,9.06
2019-03-15T09:00:45.888Z,9.05
2019-03-15T09:03:27.078Z,9.16
2019-03-15T09:05:49.295Z,9.12
2019-03-15T09:08:23.242Z,9.29
2019-03-15T09:10:52.416Z,9.43
2019-03-15T09:13:26.061Z,9.57
2019-03-15T09:15:55.110Z,9.59
2019-03-15T09:18:25.620Z,9.71
2019-03-15T09:20:54.737Z,9.72
2019-03-15T09:23:24.178Z,9.82
2019-03-15T09:25:53.231Z,9.85
2019-03-15T09:28:22.399Z,9.92
2019-03-15T09:30:51.465Z,9.93
2019-03-15T09:33:20.486Z,10.05
2019-03-15T09:35:49.540Z,10.01
2019-03-15T09:38:18.574Z,10.20
2019-03-15T09:40:49.323Z,10.14
2019-03-15T09:43:18.356Z,10.18
2019-03-15T09:45:47.456Z,10.23
2019-03-15T09:48:16.563Z,10.19
2019-03-15T09:50:51.063Z,10.31
2019-03-15T09:53:18.717Z,10.31
2019-03-15T09:55:47.788Z,10.33
2019-03-15T09:58:18.055Z,10.48
2019-03-15T10:00:47.142Z,10.42
2019-03-15T10:03:22.248Z,10.57
2019-03-15T10:05:49.637Z,10.67
2019-03-15T10:08:23.280Z,10.72
2019-03-15T10:10:50.857Z,10.78
2019-03-15T10:13:19.932Z,10.70
2019-03-15T10:15:49.078Z,10.72
2019-03-15T10:18:18.118Z,10.77
2019-03-15T10:20:47.308Z,10.74
2019-03-15T10:23:16.316Z,10.75
2019-03-15T10:25:51.084Z,10.75
2019-03-15T10:28:18.237Z,10.84
2019-03-15T10:30:47.307Z,10.87
2019-03-15T10:33:16.353Z,10.96
2019-03-15T10:35:45.428Z,10.98
2019-03-15T10:38:16.672Z,10.85
2019-03-15T10:40:45.232Z,10.88
2019-03-15T10:43:14.278Z,10.95
2019-03-15T10:45:43.442Z,10.89
2019-03-15T10:48:24.640Z,11.00
2019-03-15T10:50:45.506Z,11.14
2019-03-15T10:53:14.576Z,11.09
2019-03-15T10:55:43.624Z,11.02
2019-03-15T10:58:14.775Z,11.00
2019-03-15T11:00:43.817Z,11.03
2019-03-15T11:03:13.291Z,11.09
2019-03-15T11:05:42.424Z,11.06
2019-03-15T11:08:11.459Z,11.00
2019-03-15T11:10:40.551Z,11.17
2019-03-15T11:13:09.597Z,11.14
2019-03-15T11:15:40.495Z,11.05
2019-03-15T11:18:09.553Z,11.08
2019-03-15T11:20:38.605Z,11.10
2019-03-15T11:23:07.658Z,11.04
2019-03-15T11:25:38.497Z,11.10
2019-03-15T11:28:07.611Z,11.21
2019-03-15T11:30:36.609Z,11.21
2019-03-15T11:33:05.696Z,11.19
2019-03-15T11:35:34.777Z,11.18
2019-03-15T11:38:05.957Z,11.26
2019-03-15T11:40:37.905Z,11.22
2019-03-15T11:43:05.887Z,11.26
2019-03-15T11:45:35.066Z,11.17
2019-03-15T11:48:08.675Z,11.17
2019-03-15T11:50:38.331Z,11.30
2019-03-15T11:53:07.408Z,11.27
2019-03-15T11:55:36.528Z,11.13
2019-03-15T11:58:06.786Z,11.04
2019-03-15T12:00:35.804Z,11.06
2019-03-15T12:03:04.971Z,11.08
2019-03-15T12:05:34.016Z,10.95
2019-03-15T12:08:05.161Z,11.02
2019-03-15T12:10:34.200Z,10.97
2019-03-15T12:13:03.312Z,10.98
2019-03-15T12:15:32.398Z,11.04
2019-03-15T12:18:01.488Z,11.13
2019-03-15T12:20:30.537Z,11.24
2019-03-15T12:22:59.596Z,11.19
2019-03-15T12:25:31.298Z,11.18
2019-03-15T12:27:59.418Z,11.17
2019-03-15T12:30:28.511Z,11.12
2019-03-15T12:32:57.571Z,11.28
2019-03-15T12:35:27.636Z,11.23
2019-03-15T12:37:56.690Z,11.26
2019-03-15T12:40:25.774Z,11.12
2019-03-15T12:42:54.855Z,11.05
2019-03-15T12:45:23.959Z,11.09
2019-03-15T12:47:53.017Z,11.01
2019-03-15T12:50:22.102Z,11.06
2019-03-15T12:52:51.229Z,11.06
2019-03-15T12:55:20.347Z,11.03
2019-03-15T12:57:49.804Z,11.14
2019-03-15T13:00:18.932Z,11.12
2019-03-15T13:02:47.995Z,11.22
2019-03-15T13:05:17.084Z,11.24
2019-03-15T13:07:46.144Z,11.18
2019-03-15T13:10:15.209Z,11.16
2019-03-15T13:12:44.342Z,11.20
2019-03-15T13:15:13.706Z,11.08
2019-03-15T13:17:42.886Z,11.13
2019-03-15T13:20:12.091Z,11.10
2019-03-15T13:22:43.286Z,11.09
2019-03-15T13:25:13.496Z,11.20
2019-03-15T13:27:42.699Z,11.15
2019-03-15T13:30:11.844Z,11.11
2019-03-15T13:32:40.972Z,11.14
2019-03-15T13:35:10.115Z,11.15
2019-03-15T13:37:42.499Z,11.30
2019-03-15T13:40:10.088Z,11.25
2019-03-15T13:42:39.288Z,11.17
2019-03-15T13:45:09.844Z,11.14
2019-03-15T13:47:38.987Z,11.02
2019-03-15T13:50:09.235Z,11.09
2019-03-15T13:52:40.252Z,10.99
2019-03-15T13:55:09.328Z,11.15
2019-03-15T13:57:38.335Z,10.98
2019-03-15T14:00:08.536Z,11.12
2019-03-15T14:02:38.791Z,11.06
2019-03-15T14:05:08.142Z,11.03
2019-03-15T14:07:37.284Z,10.97
2019-03-15T14:10:07.112Z,11.05
2019-03-15T14:12:36.164Z,11.06
2019-03-15T14:15:07.065Z,11.03
2019-03-15T14:17:36.185Z,11.07
2019-03-15T14:20:08.506Z,11.08
2019-03-15T14:22:37.588Z,11.07
2019-03-15T14:25:07.511Z,11.07
2019-03-15T14:27:38.147Z,11.11
2019-03-15T14:30:07.682Z,11.11
2019-03-15T14:32:36.805Z,11.04
2019-03-15T14:35:08.142Z,11.01
2019-03-15T14:37:38.702Z,10.81
2019-03-15T14:40:07.804Z,11.05
2019-03-15T14:42:37.109Z,11.11
2019-03-15T14:45:07.067Z,11.06
2019-03-15T14:47:36.092Z,11.06
2019-03-15T14:50:06.500Z,11.08
2019-03-15T14:52:37.593Z,10.96
2019-03-15T14:55:06.892Z,11.02
2019-03-15T14:57:35.970Z,10.92
2019-03-15T15:00:05.587Z,10.97
2019-03-15T15:02:34.685Z,11.06
2019-03-15T15:05:04.170Z,10.97
2019-03-15T15:07:34.345Z,10.95
2019-03-15T15:10:03.376Z,9.62
2019-03-15T15:12:32.500Z,10.95
2019-03-15T15:15:01.553Z,10.94
2019-03-15T15:17:31.097Z,10.90
2019-03-15T15:20:00.116Z,10.92
2019-03-15T15:22:29.267Z,10.95
2019-03-15T15:24:58.401Z,10.91
2019-03-15T15:27:27.516Z,11.04
2019-03-15T15:29:58.961Z,11.06
2019-03-15T15:32:28.097Z,11.14
2019-03-15T15:34:57.177Z,11.08
2019-03-15T15:37:26.362Z,11.11
2019-03-15T15:39:55.620Z,11.10
2019-03-15T15:42:24.755Z,11.07
2019-03-15T15:44:53.874Z,11.07
2019-03-15T15:47:23.016Z,11.03
2019-03-15T15:49:52.102Z,11.05
2019-03-15T15:52:21.217Z,11.12
2019-03-15T15:54:50.299Z,11.09
2019-03-15T15:57:19.460Z,11.13
2019-03-15T15:59:48.528Z,10.99
2019-03-15T16:02:17.757Z,11.06
2019-03-15T16:04:46.892Z,10.94
2019-03-15T16:07:15.981Z,10.91
2019-03-15T16:09:45.051Z,10.91
2019-03-15T16:12:14.863Z,10.95
2019-03-15T16:14:43.908Z,10.89
2019-03-15T16:17:13.049Z,10.83
2019-03-15T16:19:42.174Z,10.87
2019-03-15T16:22:11.367Z,10.84
2019-03-15T16:24:40.455Z,10.78
2019-03-15T16:27:09.517Z,10.82
2019-03-15T16:29:38.586Z,10.81
2019-03-15T16:32:07.722Z,10.84
2019-03-15T16:34:36.774Z,10.90
2019-03-15T16:37:05.910Z,10.84
2019-03-15T16:39:35.037Z,10.83
2019-03-15T16:42:04.101Z,10.78
2019-03-15T16:44:33.269Z,10.80
2019-03-15T16:47:02.329Z,10.78
2019-03-15T16:49:31.327Z,10.84
2019-03-15T16:52:00.318Z,10.82
2019-03-15T16:54:29.440Z,10.82
2019-03-15T16:56:58.471Z,10.88
2019-03-15T16:59:27.586Z,10.84
2019-03-15T17:01:56.723Z,10.83
2019-03-15T17:04:25.859Z,10.81
2019-03-15T17:06:55.049Z,10.82
2019-03-15T17:09:24.290Z,10.81
2019-03-15T17:11:53.364Z,10.90
2019-03-15T17:14:25.890Z,10.81
2019-03-15T17:16:55.656Z,10.85
2019-03-15T17:19:26.001Z,10.84
2019-03-15T17:21:55.116Z,10.86
2019-03-15T17:24:24.234Z,10.83
2019-03-15T17:26:53.298Z,10.88
2019-03-15T17:29:22.414Z,10.90
2019-03-15T17:31:51.491Z,10.87
2019-03-15T17:34:22.814Z,10.90
2019-03-15T17:37:05.724Z,10.80
2019-03-15T17:39:23.966Z,10.86
2019-03-15T17:41:53.040Z,10.87
2019-03-15T17:44:22.169Z,10.91
2019-03-15T17:46:51.205Z,10.87
2019-03-15T17:49:20.293Z,10.84
2019-03-15T17:51:51.131Z,10.89
2019-03-15T17:54:20.214Z,10.89
2019-03-15T17:56:49.255Z,10.86
2019-03-15T17:59:18.457Z,10.94
2019-03-15T18:01:47.487Z,10.82
2019-03-15T18:04:16.531Z,10.84
2019-03-15T18:06:45.644Z,10.84
2019-03-15T18:09:14.723Z,10.88
2019-03-15T18:11:44.783Z,10.79
2019-03-15T18:14:13.863Z,10.83
2019-03-15T18:16:42.975Z,10.86
2019-03-15T18:19:11.972Z,10.88
2019-03-15T18:21:41.006Z,10.92
2019-03-15T18:24:10.390Z,10.92
2019-03-15T18:26:40.673Z,10.87
2019-03-15T18:29:09.703Z,10.81
2019-03-15T18:31:38.855Z,10.81
2019-03-15T18:34:07.851Z,10.81
2019-03-15T18:36:36.948Z,10.91
2019-03-15T18:39:08.267Z,10.89
2019-03-15T18:41:37.474Z,10.86
2019-03-15T18:44:06.540Z,10.83
2019-03-15T18:46:35.625Z,10.85
2019-03-15T18:49:04.639Z,10.86
2019-03-15T18:51:33.693Z,10.84
2019-03-15T18:54:02.776Z,10.83
2019-03-15T18:56:31.790Z,10.84
2019-03-15T18:59:00.983Z,10.80
2019-03-15T19:01:30.139Z,10.87
2019-03-15T19:03:59.136Z,10.84
2019-03-15T19:06:28.265Z,10.83
2019-03-15T19:08:57.331Z,10.80
2019-03-15T19:11:26.411Z,10.83
2019-03-15T19:13:56.619Z,10.84
2019-03-15T19:16:27.672Z,10.75
2019-03-15T19:18:58.217Z,10.79
2019-03-15T19:21:27.360Z,10.78
2019-03-15T19:23:56.410Z,10.77
2019-03-15T19:26:28.782Z,10.78
2019-03-15T19:28:56.291Z,10.78
2019-03-15T19:31:25.386Z,10.80
2019-03-15T19:33:54.406Z,10.76
2019-03-15T19:36:23.539Z,10.84
2019-03-15T19:38:52.562Z,10.74
2019-03-15T19:41:21.614Z,10.74
2019-03-15T19:43:50.663Z,10.74
2019-03-15T19:46:19.740Z,10.75
2019-03-15T19:48:50.347Z,10.77
2019-03-15T19:51:19.435Z,10.82
2019-03-15T19:53:49.240Z,10.84
2019-03-15T19:56:18.379Z,10.82
2019-03-15T19:58:47.551Z,10.78
2019-03-15T20:01:16.920Z,10.91
2019-03-15T20:03:46.175Z,10.83
2019-03-15T20:06:17.923Z,10.76
2019-03-15T20:08:47.390Z,10.74
2019-03-15T20:11:17.138Z,10.75
2019-03-15T20:13:46.785Z,10.79
2019-03-15T20:16:16.059Z,10.77
2019-03-15T20:18:48.260Z,10.73
2019-03-15T20:21:17.673Z,10.76
2019-03-15T20:23:49.099Z,10.83
2019-03-15T20:26:18.414Z,10.79
2019-03-15T20:28:49.129Z,10.80
2019-03-15T20:31:18.384Z,10.79
2019-03-15T20:33:47.801Z,10.73
2019-03-15T20:36:16.921Z,10.78
2019-03-15T20:38:45.965Z,10.75
2019-03-15T20:41:15.546Z,10.76
2019-03-15T20:43:44.798Z,10.80
2019-03-15T20:46:16.099Z,10.78
2019-03-15T20:48:45.302Z,10.82
2019-03-15T20:51:14.388Z,10.73
2019-03-15T20:53:43.545Z,10.70
2019-03-15T20:56:12.609Z,10.81
2019-03-15T20:58:41.768Z,10.86
2019-03-15T21:01:10.874Z,10.89
2019-03-15T21:03:39.979Z,10.80
2019-03-15T21:06:11.214Z,10.88
2019-03-15T21:08:40.452Z,10.76
2019-03-15T21:11:09.793Z,10.86
2019-03-15T21:13:38.855Z,10.79
2019-03-15T21:16:07.918Z,10.76
2019-03-15T21:18:36.992Z,10.74
2019-03-15T21:21:06.182Z,10.76
2019-03-15T21:23:35.294Z,10.72
2019-03-15T21:26:04.347Z,10.70
2019-03-15T21:28:33.391Z,10.70
2019-03-15T21:31:02.411Z,10.63
2019-03-15T21:33:31.470Z,10.70
2019-03-15T21:36:02.510Z,10.72
2019-03-15T21:38:31.585Z,10.65
2019-03-15T21:41:00.679Z,10.67
2019-03-15T21:43:29.732Z,10.71
2019-03-15T21:46:05.323Z,10.68
2019-03-15T21:48:34.376Z,10.72
2019-03-15T21:51:03.487Z,10.73
2019-03-15T21:53:34.111Z,10.73
2019-03-15T21:56:03.180Z,10.75
2019-03-15T21:58:32.251Z,10.74
2019-03-15T22:01:02.839Z,10.74
2019-03-15T22:03:32.234Z,10.77
2019-03-15T22:06:02.693Z,10.76
2019-03-15T22:08:31.767Z,10.69
2019-03-15T22:11:00.884Z,10.72
2019-03-15T22:13:30.032Z,10.76
2019-03-15T22:15:59.137Z,10.75
2019-03-15T22:18:28.217Z,10.68
2019-03-15T22:20:57.272Z,10.71
2019-03-15T22:23:26.301Z,10.60
2019-03-15T22:25:55.387Z,10.63
2019-03-15T22:28:24.478Z,10.65
2019-03-15T22:30:53.841Z,10.58
2019-03-15T22:33:23.047Z,10.64
2019-03-15T22:35:52.300Z,10.63
2019-03-15T22:38:26.456Z,10.58
2019-03-15T22:40:52.178Z,10.68
2019-03-15T22:43:21.318Z,10.52
2019-03-15T22:45:50.411Z,10.55
2019-03-15T22:48:19.446Z,10.62
2019-03-15T22:50:48.807Z,10.50
2019-03-15T22:53:20.793Z,10.53
2019-03-15T22:55:49.660Z,10.54
2019-03-15T22:58:19.040Z,10.30
2019-03-15T23:00:48.835Z,10.63
2019-03-15T23:03:18.311Z,10.52
2019-03-15T23:05:50.022Z,10.51
2019-03-15T23:08:19.075Z,10.51
2019-03-15T23:10:48.218Z,10.44
2019-03-15T23:13:17.236Z,10.52
2019-03-15T23:15:46.403Z,10.44
2019-03-15T23:18:15.463Z,10.42
2019-03-15T23:20:44.688Z,10.49
2019-03-15T23:23:23.181Z,10.39
2019-03-15T23:25:45.959Z,10.46
2019-03-15T23:28:15.177Z,10.44
2019-03-15T23:30:44.342Z,10.49
2019-03-15T23:33:13.521Z,10.48
2019-03-15T23:35:53.468Z,10.52
2019-03-15T23:38:13.483Z,10.57
2019-03-15T23:40:42.578Z,10.53
2019-03-15T23:43:11.653Z,10.51
2019-03-15T23:45:40.767Z,10.55
2019-03-15T23:48:10.129Z,10.59
2019-03-15T23:50:39.276Z,10.60
2019-03-15T23:53:08.361Z,10.58
2019-03-15T23:55:37.416Z,10.60
2019-03-15T23:58:06.501Z,10.58
